• Join FlightAware (Why Join?)
  • Login
  • US Flag 
12:05AM EDT


 

Airport Tracker/Info


-or-


 

Live Flight TrackerFlight Track Log ✈ N233MA ✈ 15-Jun-2013 ✈ 19A - KMGY

Flight Track Log - Related Links

Times and Time Zones

All times are in EDT time to prevent confusion due to time zone crossing. See the N233MA flight status page for this flight to view local times or setup timezone preferences in your user account.

Time Position Orientation Groundspeed Altitude Reporting Facility
EDT Latitude Longitude Course Direction KTS MPH feet Rate Location/Type
10:21AM 34.3236 -83.5811 348° North 117 135 4,100  Level Atlanta Center
10:22AM 34.3528 -83.5833 356° North 107 123 4,700 540 Climbing Atlanta Center
10:23AM 34.3842 -83.5858 356° North 107 123 5,200 540 Climbing Atlanta Center
10:24AM 34.3216 -83.5667 North  Level FlightAware Approximate
10:24AM 34.4133 -83.5881 356° North 107 123 5,800  Level Atlanta Center
10:25AM 34.4447 -83.5931 353° North 109 125 6,400 540 Climbing Atlanta Center
10:26AM 34.4697 -83.5928 North 97 112 6,900 540 Climbing Atlanta Center
10:27AM 34.4969 -83.5978 351° North 97 112 7,500 540 Climbing Atlanta Center
10:28AM 34.5239 -83.6025 352° North 97 112 8,000 480 Climbing Atlanta Center
10:29AM 34.5511 -83.6050 356° North 92 106 8,500 480 Climbing Atlanta Center
10:30AM 34.5825 -83.6100 353° North 92 106 9,000 420 Climbing Atlanta Center
10:31AM 34.6033 -83.6122 355° North 92 106 9,400 360 Climbing Atlanta Center
10:32AM 34.6306 -83.6147 356° North 87 100 9,800 300 Climbing Atlanta Center
10:33AM 34.6575 -83.6169 356° North 87 100 10,000 60 Climbing Atlanta Center
10:34AM 34.6911 -83.6219 353° North 104 120 10,000  Level Atlanta Center
10:35AM 34.7264 -83.6242 357° North 112 129 10,000  Level Atlanta Center
10:36AM 34.7600 -83.6292 353° North 117 135 10,000  Level Atlanta Center
10:37AM 34.7933 -83.6317 356° North 122 140 10,000  Level Atlanta Center
10:38AM 34.8247 -83.6364 353° North 122 140 10,000  Level Atlanta Center
10:39AM 34.8581 -83.6414 353° North 122 140 10,000  Level Atlanta Center
10:40AM 34.8933 -83.6436 357° North 122 140 10,000  Level Atlanta Center
10:41AM 34.9269 -83.6461 357° North 122 140 10,000  Level Atlanta Center
10:42AM 34.9625 -83.6561 347° North 122 140 10,000  Level Atlanta Center
10:43AM 34.9978 -83.6583 357° North 122 140 10,000  Level Atlanta Center
10:44AM 35.0314 -83.6633 353° North 122 140 10,000  Level Atlanta Center
10:45AM 35.0625 -83.6658 356° North 122 140 10,000  Level Atlanta Center
10:46AM 35.0958 -83.6706 353° North 122 140 10,000  Level Atlanta Center
10:47AM 35.1294 -83.6731 357° North 122 140 10,000  Level Atlanta Center
10:48AM 35.1606 -83.6806 349° North 122 140 10,000  Level Atlanta Center
10:49AM 35.1983 -83.6831 357° North 122 140 10,000  Level Atlanta Center
10:50AM 35.2294 -83.6878 353° North 122 140 10,000  Level Atlanta Center
10:51AM 35.2650 -83.6928 353° North 122 140 10,000  Level Atlanta Center
10:52AM 35.2964 -83.6953 356° North 122 140 10,000  Level Atlanta Center
10:53AM 35.3297 -83.7003 353° North 122 140 10,000  Level Atlanta Center
10:54AM 35.3631 -83.7000 360° North 122 140 10,000  Level Atlanta Center
10:55AM 35.3986 -83.7050 353° North 122 140 10,000  Level Atlanta Center
10:56AM 35.4319 -83.7100 353° North 122 140 10,000  Level Atlanta Center
10:57AM 35.4694 -83.7150 354° North 122 140 10,000  Level Atlanta Center
10:58AM 35.4989 -83.7200 352° North 122 140 10,000  Level Atlanta Center
10:59AM 35.5342 -83.7222 357° North 122 140 10,000  Level Atlanta Center
11:01AM 35.5906 -83.7264 357° North 122 140 10,000  Level Indianapolis Center
11:02AM 35.6239 -83.7286 357° North 121 139 10,000  Level Indianapolis Center
11:03AM 35.6592 -83.7339 353° North 125 144 10,000  Level Indianapolis Center
11:04AM 35.6992 -83.7383 355° North 124 143 10,000  Level Indianapolis Center
11:05AM 35.7331 -83.7422 355° North 123 142 10,000  Level Indianapolis Center
11:06AM 35.7683 -83.7467 354° North 125 144 10,000  Level Indianapolis Center
11:07AM 35.8017 -83.7500 355° North 123 142 10,000  Level Indianapolis Center
11:08AM 35.8364 -83.7550 353° North 124 143 10,000  Level Indianapolis Center
11:09AM 35.8719 -83.7586 355° North 126 145 10,000  Level Indianapolis Center
11:10AM 35.9078 -83.7625 355° North 128 147 10,000  Level Indianapolis Center
11:11AM 35.9475 -83.7686 353° North 125 144 10,000  Level Indianapolis Center
11:12AM 35.9792 -83.7714 356° North 126 145 10,000  Level Indianapolis Center
11:13AM 36.0203 -83.7769 354° North 125 144 10,000  Level Indianapolis Center
11:13AM 36.0372 -83.7819 347° North 131 151 10,000  Level Atlanta Center
11:14AM 36.0725 -83.7869 353° North 131 151 10,000  Level Atlanta Center
11:15AM 36.1039 -83.7919 353° North 131 151 10,000  Level Atlanta Center
11:16AM 36.1264 -83.7892 North 129 148 10,000  Level Indianapolis Center
11:17AM 36.1606 -83.7933 354° North 124 143 10,000  Level Indianapolis Center
11:18AM 36.1958 -83.7975 355° North 126 145 10,000  Level Indianapolis Center
11:19AM 36.2297 -83.8028 353° North 123 142 10,000  Level Indianapolis Center
11:20AM 36.2717 -83.8075 355° North 125 144 10,000  Level Indianapolis Center
11:21AM 36.3047 -83.8106 356° North 121 139 10,000  Level Indianapolis Center
11:22AM 36.3403 -83.8147 355° North 126 145 10,000  Level Indianapolis Center
11:23AM 36.3736 -83.8183 355° North 122 140 10,000  Level Indianapolis Center
11:24AM 36.4097 -83.8236 353° North 127 146 10,000  Level Indianapolis Center
11:25AM 36.4472 -83.8269 356° North 124 143 10,000  Level Indianapolis Center
11:26AM 36.4781 -83.8311 354° North 124 143 10,000  Level Indianapolis Center
11:27AM 36.5164 -83.8350 355° North 123 142 10,000  Level Indianapolis Center
11:28AM 36.5511 -83.8400 353° North 124 143 10,000  Level Indianapolis Center
11:29AM 36.5853 -83.8447 354° North 123 142 10,000  Level Indianapolis Center
11:30AM 36.6192 -83.8481 355° North 121 139 10,000  Level Indianapolis Center
11:31AM 36.6603 -83.8528 355° North 126 145 10,000  Level Indianapolis Center
11:32AM 36.6942 -83.8569 354° North 123 142 10,000  Level Indianapolis Center
11:33AM 36.7286 -83.8619 353° North 123 142 10,000  Level Indianapolis Center
11:35AM 36.7619 -83.8658 355° North 121 139 10,000  Level Indianapolis Center
11:36AM 36.7953 -83.8700 354° North 121 139 10,000  Level Indianapolis Center
11:37AM 36.8292 -83.8756 353° North 122 140 10,000  Level Indianapolis Center
11:38AM 36.8633 -83.8800 354° North 122 140 10,000  Level Indianapolis Center
11:39AM 36.9022 -83.8822 357° North 120 138 10,000  Level Indianapolis Center
11:40AM 36.9364 -83.8872 353° North 121 139 10,000  Level Indianapolis Center
11:41AM 36.9708 -83.8914 354° North 123 142 10,000  Level Indianapolis Center
11:42AM 37.0039 -83.8956 354° North 121 139 10,000  Level Indianapolis Center
11:43AM 37.0392 -83.8997 355° North 123 142 10,000  Level Indianapolis Center
11:44AM 37.0725 -83.9036 355° North 123 142 10,000  Level Indianapolis Center
11:45AM 37.1064 -83.9075 355° North 121 139 10,000  Level Indianapolis Center
11:46AM 37.1475 -83.9125 354° North 126 145 10,000  Level Indianapolis Center
11:47AM 37.1819 -83.9178 353° North 125 144 10,000  Level Indianapolis Center
11:48AM 37.2161 -83.9219 354° North 124 143 10,000  Level Indianapolis Center
11:49AM 37.2503 -83.9261 354° North 124 143 10,000  Level Indianapolis Center
11:50AM 37.2853 -83.9303 355° North 125 144 10,000  Level Indianapolis Center
11:51AM 37.3206 -83.9353 354° North 126 145 10,000  Level Indianapolis Center
11:52AM 37.3556 -83.9397 354° North 127 146 10,000  Level Indianapolis Center
11:53AM 37.3900 -83.9431 356° North 125 144 10,000  Level Indianapolis Center
11:54AM 37.4311 -83.9478 355° North 125 144 10,000  Level Indianapolis Center
11:55AM 37.4653 -83.9522 354° North 124 143 10,000  Level Indianapolis Center
11:56AM 37.4994 -83.9572 353° North 123 142 10,000  Level Indianapolis Center
11:57AM 37.5350 -83.9611 355° North 126 145 10,000  Level Indianapolis Center
11:58AM 37.5689 -83.9658 354° North 123 142 10,000  Level Indianapolis Center
11:59AM 37.6036 -83.9697 355° North 125 144 10,000  Level Indianapolis Center
12:00PM 37.6378 -83.9744 354° North 123 142 10,000  Level Indianapolis Center
12:01PM 37.6794 -83.9789 355° North 127 146 10,000  Level Indianapolis Center
12:02PM 37.7125 -83.9839 353° North 121 139 10,000  Level Indianapolis Center
12:03PM 37.7481 -83.9892 353° North 127 146 10,000  Level Indianapolis Center
12:04PM 37.7831 -83.9922 356° North 126 145 10,000  Level Indianapolis Center
12:05PM 37.8178 -83.9972 354° North 125 144 10,000  Level Indianapolis Center
12:06PM 37.8528 -84.0022 354° North 126 145 10,000 -180 Level Indianapolis Center
12:07PM 37.8894 -84.0056 356° North 130 150 9,700 -420 Descending Indianapolis Center
12:08PM 37.9336 -84.0114 354° North 135 155 9,200 -540 Descending Indianapolis Center
12:09PM 37.9708 -84.0150 356° North 135 155 8,700 -540 Descending Indianapolis Center
12:10PM 38.0078 -84.0211 353° North 134 154 8,200 -540 Descending Indianapolis Center
12:11PM 38.0464 -84.0244 356° North 136 157 7,700 -540 Descending Indianapolis Center
12:13PM 38.0853 -84.0294 354° North 138 159 7,200 -360 Descending Indianapolis Center
12:14PM 38.1239 -84.0358 353° North 139 160 7,000 -120 Descending Indianapolis Center
12:15PM 38.1600 -84.0403 354° North 135 155 7,000  Level Indianapolis Center
12:16PM 38.1950 -84.0450 354° North 131 151 7,000  Level Indianapolis Center
12:17PM 38.2369 -84.0492 356° North 129 148 7,000  Level Indianapolis Center
12:18PM 38.2728 -84.0536 354° North 129 148 7,000  Level Indianapolis Center
12:19PM 38.3086 -84.0575 355° North 129 148 7,000  Level Indianapolis Center
12:20PM 38.3447 -84.0625 354° North 130 150 7,000  Level Indianapolis Center
12:21PM 38.3803 -84.0661 355° North 128 147 7,000  Level Indianapolis Center
12:22PM 38.4167 -84.0708 354° North 131 151 7,000  Level Indianapolis Center
12:23PM 38.4533 -84.0764 353° North 133 153 7,000  Level Indianapolis Center
12:24PM 38.4961 -84.0833 353° North 132 152 7,000  Level Indianapolis Center
12:25PM 38.5325 -84.0864 356° North 132 152 7,000  Level Indianapolis Center
12:26PM 38.5686 -84.0919 353° North 130 150 7,000  Level Indianapolis Center
12:27PM 38.6058 -84.0950 356° North 133 153 7,000  Level Indianapolis Center
12:28PM 38.6428 -84.1008 353° North 133 153 7,000  Level Indianapolis Center
12:29PM 38.6808 -84.1078 352° North 136 157 7,000  Level Indianapolis Center
12:30PM 38.7175 -84.1117 355° North 134 154 7,000  Level Indianapolis Center
12:31PM 38.7558 -84.1172 354° North 135 155 7,000  Level Indianapolis Center
12:32PM 38.7992 -84.1208 356° North 134 154 7,000 -180 Level Indianapolis Center
12:33PM 38.8378 -84.1253 355° North 137 158 6,700 -420 Descending Indianapolis Center
12:34PM 38.8747 -84.1325 351° North 133 153 6,200 -480 Descending Indianapolis Center
12:35PM 38.9089 -84.1356 356° North 124 143 5,800 -480 Descending Indianapolis Center
12:36PM 38.9444 -84.1394 355° North 126 145 5,300 -420 Descending Indianapolis Center
12:37PM 38.9828 -84.1444 354° North 131 151 5,000 -180 Descending Indianapolis Center
12:38PM 39.0192 -84.1492 354° North 133 153 5,000  Level Indianapolis Center
12:39PM 39.0556 -84.1550 353° North 131 151 5,000  Level Indianapolis Center
12:40PM 39.0919 -84.1594 355° North 131 151 5,000  Level Indianapolis Center
12:41PM 39.1286 -84.1653 353° North 131 151 5,000  Level Indianapolis Center
12:42PM 39.1708 -84.1706 354° North 130 150 5,000  Level Indianapolis Center
12:43PM 39.2078 -84.1750 355° North 131 151 5,000  Level Indianapolis Center
12:44PM 39.2439 -84.1789 355° North 131 151 5,000  Level Indianapolis Center
12:45PM 39.2786 -84.1847 353° North 128 147 5,000  Level Indianapolis Center
12:46PM 39.2892 -84.1853 358° North 127 146 5,000 -420 Level Indianapolis Center
12:46PM 39.3150 -84.1892 353° North 128 147 4,600 -540 Descending Indianapolis Center
12:47PM 39.3508 -84.1936 355° North 128 147 4,100 -480 Descending Indianapolis Center
12:48PM 39.3858 -84.1989 353° North 127 146 3,700 -480 Descending Indianapolis Center
12:50PM 39.4244 -84.2028 356° North 131 151 3,200 -360 Descending Indianapolis Center
12:51PM 39.4667 -84.2094 353° North 141 162 3,000 -120 Descending Indianapolis Center
12:52PM 39.5111 -84.2169 353° North 142 163 3,000  Level Indianapolis Center